10:26
Airports
History
Links
Donate
Help keep this website running!
PayPal
Bitcoin
Information on this page is community maintained and may be outdated or inaccurate and is intended for reference only or PC simulator navigating.
Always use approved charts for navigating.
SDRD
Adhemar Ribeiro
Adhemar Ribeiro (SDRD)
Santa Rita do Passa Quatro, São Paulo, Brazil (13670)
4
Lat/Lng:21° 38' 33" S / 47° 28' 16" W
-21.6425 / -47.471111
Elevation:2776'ft 846mMSL
ID / ICAO:SDRD
Runways:1
Longest:(12-30) 675.9m 2,218ft Dirt
Distance To
Airport ID:
Nearby WeatherUpdated 05-25-17 09:00 GMT
Nearby weather at SBYS, CAMPO FONTENELLE located 25.2 nautical miles from SDRD
Altimeter: 30.12
Visibility: 0.9 statute miles
Wind: 3 knots (230°)
Temp: 14°c 57°f
Humidity: 100.0%

METAR: SBYS 250900Z 23003KT 1500 R02/P2000 R20/P0550 NSC 14/14 Q1020

(Powered by phpweather)
Runway 12 / 30
Dimensions:675.9 x 29.9m 2218' x 98'ft
Surface:Dirt
Runway 12 [A]Runway 30 [B]
Heading:100°TH 280°TH
Lat:
Lng:
21° 38' 31.03"S
47° 28' 27.67"W
21° 38' 34.97"S
47° 28' 4.33"W
User Notes and Comments
Google Map
Nearby Airports
4 Tambau 10.7 NM
SSET ESE 110°
4 Usina Santa Rita 13.2 NM
SDSQ WSW 244°
(U) FAZENDA AMALIA 15.2 NM
SDFH NNE 25°
(C) Porto Ferreira 16.0 NM
SDPF S 180°
(C) CAMPO FONTENELLE 25.2 NM
SBYS (WX) SSE 159°
4 Fazenda Santa Terezinha da Barra 25.6 NM
SDST SW 229°
4 Fazenda Passaredo 26.7 NM
SSEF NE 35°
VFR Chart
Flight Planning at SkyVector.com